createdAt,value
2023-05-01T00:01:09.347Z,9.70
2023-05-01T00:03:11.153Z,9.80
2023-05-01T00:05:12.864Z,9.90
2023-05-01T00:07:14.517Z,9.90
2023-05-01T00:09:16.258Z,9.90
2023-05-01T00:11:17.963Z,9.90
2023-05-01T00:13:21.844Z,9.90
2023-05-01T00:15:23.855Z,9.90
2023-05-01T00:17:26.084Z,9.90
2023-05-01T00:19:27.735Z,9.90
2023-05-01T00:21:29.604Z,9.90
2023-05-01T00:23:31.186Z,9.90
2023-05-01T00:25:32.836Z,9.80
2023-05-01T00:27:34.460Z,9.70
2023-05-01T00:29:36.117Z,9.60
2023-05-01T00:31:37.778Z,9.70
2023-05-01T00:33:40.544Z,9.70
2023-05-01T00:35:45.431Z,9.50
2023-05-01T00:37:47.168Z,9.50
2023-05-01T00:39:48.781Z,9.50
2023-05-01T00:41:50.492Z,9.50
2023-05-01T00:43:52.224Z,9.60
2023-05-01T00:45:53.951Z,9.50
2023-05-01T00:47:55.640Z,9.50
2023-05-01T00:49:58.141Z,9.60
2023-05-01T00:52:00.075Z,9.60
2023-05-01T00:54:02.712Z,9.60
2023-05-01T00:56:05.228Z,9.70
2023-05-01T00:58:07.514Z,9.60
2023-05-01T01:00:11.259Z,9.70
2023-05-01T01:02:13.728Z,9.60
2023-05-01T01:04:15.517Z,9.70
2023-05-01T01:06:35.856Z,9.60
2023-05-01T01:08:42.227Z,9.60
2023-05-01T01:10:50.369Z,9.70
2023-05-01T01:13:01.298Z,9.80
2023-05-01T01:15:22.075Z,9.70
2023-05-01T01:17:46.710Z,9.80
2023-05-01T01:20:07.037Z,9.70
2023-05-01T01:22:14.909Z,9.70
2023-05-01T01:24:23.631Z,9.70
2023-05-01T01:26:31.540Z,9.70
2023-05-01T01:28:38.916Z,9.60
2023-05-01T01:30:43.644Z,9.60
2023-05-01T01:33:03.868Z,9.70
2023-05-01T01:35:07.838Z,9.70
2023-05-01T01:37:15.522Z,9.60
2023-05-01T01:39:27.072Z,9.70
2023-05-01T01:41:33.148Z,9.60
2023-05-01T01:43:38.301Z,9.70
2023-05-01T01:45:43.455Z,9.70
2023-05-01T01:47:45.624Z,9.70
2023-05-01T01:49:49.821Z,9.70
2023-05-01T01:51:52.888Z,9.60
2023-05-01T01:53:57.065Z,9.70
2023-05-01T01:56:01.324Z,9.70
2023-05-01T01:58:05.269Z,9.70
2023-05-01T02:02:23.215Z,9.70
2023-05-01T02:04:26.273Z,9.60
2023-05-01T02:06:28.952Z,9.70
2023-05-01T02:08:31.213Z,9.70
2023-05-01T02:10:33.311Z,9.80
2023-05-01T02:12:35.829Z,9.80
2023-05-01T02:14:37.742Z,9.70
2023-05-01T02:16:40.861Z,9.70
2023-05-01T02:18:43.014Z,9.70
2023-05-01T02:20:45.370Z,9.60
2023-05-01T02:22:47.444Z,9.70
2023-05-01T02:24:49.241Z,9.80
2023-05-01T02:26:55.281Z,9.80
2023-05-01T02:28:57.438Z,9.80
2023-05-01T02:30:59.119Z,9.80
2023-05-01T02:33:00.722Z,9.80
2023-05-01T02:35:02.464Z,9.70
2023-05-01T02:37:04.595Z,9.70
2023-05-01T02:39:06.714Z,9.80
2023-05-01T02:41:09.702Z,9.90
2023-05-01T02:43:12.605Z,10.00
2023-05-01T02:45:24.416Z,10.00
2023-05-01T02:47:27.726Z,10.00
2023-05-01T02:49:30.112Z,9.90
2023-05-01T02:51:32.055Z,10.00
2023-05-01T02:53:34.169Z,10.00
2023-05-01T02:55:35.980Z,10.10
2023-05-01T02:57:37.874Z,10.10
2023-05-01T02:59:40.938Z,10.00
2023-05-01T03:01:42.771Z,10.00
2023-05-01T03:03:44.633Z,10.10
2023-05-01T03:05:46.276Z,10.10
2023-05-01T03:07:48.381Z,10.10
2023-05-01T03:09:50.001Z,10.10
2023-05-01T03:11:51.594Z,10.10
2023-05-01T03:13:53.226Z,10.00
2023-05-01T03:15:54.982Z,10.10
2023-05-01T03:17:56.760Z,10.10
2023-05-01T03:19:58.531Z,10.10
2023-05-01T03:22:00.401Z,10.10
2023-05-01T03:24:02.042Z,10.10
2023-05-01T03:26:03.638Z,10.20
2023-05-01T03:28:05.716Z,10.20
2023-05-01T03:30:08.788Z,10.10
2023-05-01T03:32:10.488Z,10.20
2023-05-01T03:34:12.063Z,10.20
2023-05-01T03:36:13.699Z,10.30
2023-05-01T03:38:15.933Z,10.20
2023-05-01T03:40:19.388Z,10.20
2023-05-01T03:42:21.157Z,10.10
2023-05-01T03:44:22.841Z,10.20
2023-05-01T03:46:24.562Z,10.10
2023-05-01T03:48:26.247Z,10.10
2023-05-01T03:50:27.902Z,10.20
2023-05-01T03:52:29.915Z,10.20
2023-05-01T03:54:31.614Z,10.20
2023-05-01T03:56:35.842Z,10.20
2023-05-01T03:58:37.550Z,10.20
2023-05-01T04:00:39.293Z,10.20
2023-05-01T04:02:41.014Z,10.20
2023-05-01T04:04:43.261Z,10.20
2023-05-01T04:06:45.292Z,10.20
2023-05-01T04:08:46.989Z,10.20
2023-05-01T04:10:48.669Z,10.20
2023-05-01T04:12:50.287Z,10.20
2023-05-01T04:14:51.957Z,10.10
2023-05-01T04:16:53.631Z,10.00
2023-05-01T04:18:55.283Z,10.00
2023-05-01T04:20:57.316Z,10.00
2023-05-01T04:22:58.960Z,10.10
2023-05-01T04:25:00.948Z,10.00
2023-05-01T04:27:02.654Z,10.00
2023-05-01T04:29:04.767Z,10.00
2023-05-01T04:31:06.769Z,10.00
2023-05-01T04:33:11.703Z,10.00
2023-05-01T04:35:13.469Z,9.90
2023-05-01T04:37:17.785Z,10.00
2023-05-01T04:39:19.746Z,10.00
2023-05-01T04:41:21.648Z,10.00
2023-05-01T04:43:23.332Z,10.00
2023-05-01T04:45:25.164Z,10.10
2023-05-01T04:47:27.331Z,10.10
2023-05-01T04:49:29.119Z,10.10
2023-05-01T04:51:31.123Z,10.10
2023-05-01T04:53:33.864Z,10.10
2023-05-01T04:55:35.716Z,10.20
2023-05-01T04:57:37.541Z,10.20
2023-05-01T04:59:39.518Z,10.10
2023-05-01T05:01:41.340Z,10.10
2023-05-01T05:03:43.418Z,10.10
2023-05-01T05:05:46.620Z,10.10
2023-05-01T05:07:48.423Z,10.10
2023-05-01T05:09:50.196Z,10.20
2023-05-01T05:11:51.852Z,10.20
2023-05-01T05:13:53.521Z,10.30
2023-05-01T05:15:55.391Z,10.40
2023-05-01T05:17:57.253Z,10.30
2023-05-01T05:20:00.577Z,10.30
2023-05-01T05:22:02.776Z,10.40
2023-05-01T05:24:04.548Z,10.40
2023-05-01T05:26:06.313Z,10.40
2023-05-01T05:28:08.482Z,10.40
2023-05-01T05:30:10.459Z,10.50
2023-05-01T05:32:12.264Z,10.50
2023-05-01T05:34:14.574Z,10.60
2023-05-01T05:36:16.460Z,10.60
2023-05-01T05:38:19.136Z,10.50
2023-05-01T05:40:20.897Z,10.50
2023-05-01T05:42:22.566Z,10.60
2023-05-01T05:44:24.209Z,10.70
2023-05-01T05:46:25.948Z,10.70
2023-05-01T05:48:28.017Z,10.70
2023-05-01T05:50:32.736Z,10.70
2023-05-01T05:52:36.544Z,10.70
2023-05-01T05:54:38.194Z,10.70
2023-05-01T05:56:39.989Z,10.70
2023-05-01T05:58:43.809Z,10.80
2023-05-01T06:00:47.826Z,10.80
2023-05-01T06:02:49.586Z,10.70
2023-05-01T06:04:51.399Z,10.70
2023-05-01T06:06:53.211Z,10.80
2023-05-01T06:08:55.035Z,10.80
2023-05-01T06:10:58.913Z,10.80
2023-05-01T06:13:13.753Z,10.90
2023-05-01T06:15:17.259Z,10.80
2023-05-01T06:17:20.127Z,10.80
2023-05-01T06:19:21.857Z,10.80
2023-05-01T06:21:23.520Z,10.80
2023-05-01T06:23:25.729Z,10.80
2023-05-01T06:25:27.557Z,10.80
2023-05-01T06:27:29.342Z,10.80
2023-05-01T06:29:32.326Z,10.80
2023-05-01T06:31:34.131Z,10.80
2023-05-01T06:33:35.938Z,10.90
2023-05-01T06:35:38.993Z,10.80
2023-05-01T06:37:40.746Z,10.80
2023-05-01T06:39:42.505Z,10.90
2023-05-01T06:41:47.576Z,10.80
2023-05-01T06:43:49.269Z,10.80
2023-05-01T06:45:51.060Z,10.90
2023-05-01T06:47:52.787Z,10.90
2023-05-01T06:49:54.937Z,11.00
2023-05-01T06:51:58.970Z,11.10
2023-05-01T06:54:00.787Z,11.10
2023-05-01T06:56:02.490Z,11.00
2023-05-01T06:58:09.774Z,11.00
2023-05-01T07:00:24.973Z,11.20
2023-05-01T07:02:27.186Z,11.20
2023-05-01T07:04:34.567Z,11.10
2023-05-01T07:06:37.285Z,11.10
2023-05-01T07:08:44.873Z,11.10
2023-05-01T07:10:46.647Z,11.10
2023-05-01T07:12:48.356Z,11.20
2023-05-01T07:14:50.070Z,11.10
2023-05-01T07:16:53.015Z,11.10
2023-05-01T07:18:54.881Z,11.30
2023-05-01T07:20:56.589Z,11.40
2023-05-01T07:22:58.269Z,11.40
2023-05-01T07:25:01.289Z,11.40
2023-05-01T07:27:04.124Z,11.40
2023-05-01T07:29:06.209Z,11.50
2023-05-01T07:31:11.000Z,11.50
2023-05-01T07:33:12.756Z,11.50
2023-05-01T07:35:15.566Z,11.60
2023-05-01T07:37:18.703Z,11.70
2023-05-01T07:39:20.441Z,11.70
2023-05-01T07:41:22.717Z,11.80
2023-05-01T07:43:24.500Z,11.80
2023-05-01T07:45:27.964Z,11.90
2023-05-01T07:47:30.218Z,11.90
2023-05-01T07:49:36.190Z,11.90
2023-05-01T07:51:37.897Z,12.00
2023-05-01T07:53:42.129Z,12.10
2023-05-01T07:55:43.833Z,12.10
2023-05-01T07:57:45.753Z,12.10
2023-05-01T07:59:48.675Z,12.20
2023-05-01T08:01:50.560Z,12.20
2023-05-01T08:03:52.358Z,12.20
2023-05-01T08:06:01.752Z,12.20
2023-05-01T08:08:03.540Z,12.30
2023-05-01T08:10:05.770Z,12.40
2023-05-01T08:12:07.629Z,12.40
2023-05-01T08:14:09.310Z,12.50
2023-05-01T08:16:11.033Z,12.50
2023-05-01T08:18:13.653Z,12.50
2023-05-01T08:20:15.427Z,12.40
2023-05-01T08:22:17.085Z,12.40
2023-05-01T08:24:18.880Z,12.50
2023-05-01T08:26:22.557Z,12.50
2023-05-01T08:28:24.600Z,12.60
2023-05-01T08:30:26.283Z,12.70
2023-05-01T08:32:28.007Z,12.70
2023-05-01T08:34:29.870Z,12.70
2023-05-01T08:36:32.529Z,12.70
2023-05-01T08:38:34.152Z,12.90
2023-05-01T08:40:37.057Z,13.00
2023-05-01T08:42:40.257Z,13.10
2023-05-01T08:44:42.233Z,13.20
2023-05-01T08:46:44.482Z,13.30
2023-05-01T08:48:46.974Z,13.40
2023-05-01T08:50:49.613Z,13.50
2023-05-01T08:52:51.538Z,13.50
2023-05-01T08:54:56.737Z,13.50
2023-05-01T08:57:02.534Z,13.50
2023-05-01T08:59:05.161Z,13.90
2023-05-01T09:01:07.696Z,14.00
2023-05-01T09:03:11.439Z,14.30
2023-05-01T09:05:13.706Z,14.50
2023-05-01T09:07:15.387Z,15.10
2023-05-01T09:09:17.127Z,15.20
2023-05-01T09:11:21.788Z,15.40
2023-05-01T09:13:25.146Z,15.30
2023-05-01T09:15:27.363Z,15.20
2023-05-01T09:17:31.844Z,15.10
2023-05-01T09:19:33.498Z,15.00
2023-05-01T09:21:35.227Z,15.10
2023-05-01T09:23:37.624Z,15.10
2023-05-01T09:25:39.331Z,15.30
2023-05-01T09:27:40.926Z,15.20
2023-05-01T09:29:43.915Z,15.20
2023-05-01T09:31:45.746Z,15.20
2023-05-01T09:33:58.106Z,15.20
2023-05-01T09:36:06.969Z,15.10
2023-05-01T09:38:17.018Z,15.20
2023-05-01T09:40:18.683Z,15.30
2023-05-01T09:42:23.990Z,15.30
2023-05-01T09:44:26.805Z,15.40
2023-05-01T09:46:28.776Z,15.30
2023-05-01T09:48:33.302Z,15.40
2023-05-01T09:50:36.720Z,15.60
2023-05-01T09:52:38.496Z,15.70
2023-05-01T09:54:40.213Z,15.90
2023-05-01T09:56:46.904Z,15.90
2023-05-01T09:58:50.201Z,16.00
2023-05-01T10:00:52.124Z,16.10
2023-05-01T10:02:54.067Z,16.20
2023-05-01T10:04:58.103Z,16.30
2023-05-01T10:07:13.443Z,16.50
2023-05-01T10:09:26.428Z,16.60
2023-05-01T10:11:28.372Z,16.50
2023-05-01T10:13:30.796Z,16.50
2023-05-01T10:15:38.856Z,16.70
2023-05-01T10:17:43.669Z,16.90
2023-05-01T10:19:45.596Z,16.90
2023-05-01T10:21:47.327Z,16.60
2023-05-01T10:23:49.070Z,16.70
2023-05-01T10:25:52.463Z,16.70
2023-05-01T10:27:54.848Z,16.60
2023-05-01T10:29:57.425Z,16.80
2023-05-01T10:32:00.182Z,16.60
2023-05-01T10:34:02.253Z,16.80
2023-05-01T10:36:06.445Z,17.00
2023-05-01T10:38:11.499Z,16.90
2023-05-01T10:40:31.959Z,16.80
2023-05-01T10:42:33.924Z,16.90
2023-05-01T10:44:35.897Z,16.80
2023-05-01T10:46:37.835Z,16.90
2023-05-01T10:48:39.685Z,16.90
2023-05-01T10:51:00.365Z,17.00
2023-05-01T10:53:20.238Z,17.00
2023-05-01T10:55:34.123Z,17.00
2023-05-01T10:57:42.134Z,17.10
2023-05-01T10:59:59.137Z,17.10
2023-05-01T11:02:20.826Z,17.30
2023-05-01T11:04:22.477Z,17.00
2023-05-01T11:06:24.593Z,17.20
2023-05-01T11:08:30.388Z,17.10
2023-05-01T11:10:32.238Z,16.80
2023-05-01T11:12:46.293Z,16.90
2023-05-01T11:14:54.217Z,16.80
2023-05-01T11:16:56.226Z,16.80
2023-05-01T11:18:57.943Z,16.70
2023-05-01T11:21:01.972Z,16.60
2023-05-01T11:23:03.615Z,16.60
2023-05-01T11:25:17.603Z,16.50
2023-05-01T11:27:19.189Z,16.50
2023-05-01T11:29:21.666Z,16.70
2023-05-01T11:31:23.361Z,16.40
2023-05-01T11:33:26.042Z,16.50
2023-05-01T11:35:28.518Z,16.70
2023-05-01T11:37:44.581Z,16.70
2023-05-01T11:39:53.175Z,16.50
2023-05-01T11:42:08.784Z,16.60
2023-05-01T11:44:17.470Z,16.70
2023-05-01T11:46:27.704Z,16.80
2023-05-01T11:48:30.091Z,16.90
2023-05-01T11:50:36.160Z,16.70
2023-05-01T11:52:45.561Z,16.90
2023-05-01T11:54:47.664Z,16.90
2023-05-01T11:56:57.216Z,16.90
2023-05-01T11:59:11.587Z,17.00
2023-05-01T12:01:14.305Z,16.80
2023-05-01T12:03:16.187Z,16.80
2023-05-01T12:05:18.517Z,16.80
2023-05-01T12:07:23.309Z,16.40
2023-05-01T12:09:26.838Z,16.50
2023-05-01T12:11:28.574Z,16.70
2023-05-01T12:13:30.298Z,16.60
2023-05-01T12:15:34.661Z,16.50
2023-05-01T12:17:36.636Z,16.30
2023-05-01T12:19:51.200Z,16.40
2023-05-01T12:22:05.548Z,16.50
2023-05-01T12:24:16.121Z,16.60
2023-05-01T12:26:17.907Z,16.50
2023-05-01T12:28:20.444Z,16.50
2023-05-01T12:30:26.864Z,16.50
2023-05-01T12:32:32.349Z,16.40
2023-05-01T12:34:34.183Z,16.30
2023-05-01T12:36:36.521Z,16.40
2023-05-01T12:38:38.390Z,16.30
2023-05-01T12:40:40.759Z,16.30
2023-05-01T12:42:42.703Z,16.30
2023-05-01T12:44:44.634Z,16.40
2023-05-01T12:46:53.129Z,16.50
2023-05-01T12:48:55.515Z,16.60
2023-05-01T12:50:57.623Z,16.70
2023-05-01T12:53:02.141Z,16.60
2023-05-01T12:55:04.862Z,16.50
2023-05-01T12:57:08.018Z,16.50
2023-05-01T12:59:19.764Z,16.30
2023-05-01T13:01:26.293Z,16.70
2023-05-01T13:03:29.158Z,16.70
2023-05-01T13:05:31.223Z,17.10
2023-05-01T13:07:32.913Z,17.40
2023-05-01T13:09:34.559Z,17.70
2023-05-01T13:11:36.424Z,17.80
2023-05-01T13:13:38.262Z,18.00
2023-05-01T13:15:40.115Z,18.10
2023-05-01T13:17:41.803Z,18.60
2023-05-01T13:19:43.672Z,19.10
2023-05-01T13:21:49.424Z,18.70
2023-05-01T13:23:54.996Z,18.10
2023-05-01T13:25:57.525Z,17.60
2023-05-01T13:27:59.306Z,17.30
2023-05-01T13:30:02.352Z,16.70
2023-05-01T13:32:05.752Z,16.60
2023-05-01T13:34:08.343Z,16.60
2023-05-01T13:36:24.468Z,16.60
2023-05-01T13:38:27.440Z,16.40
2023-05-01T13:40:29.168Z,16.40
2023-05-01T13:42:31.582Z,16.30
2023-05-01T13:44:33.281Z,16.30
2023-05-01T13:46:36.031Z,16.30
2023-05-01T13:48:39.336Z,16.20
2023-05-01T13:50:42.389Z,16.10
2023-05-01T13:52:44.526Z,16.10
2023-05-01T13:54:47.535Z,16.10
2023-05-01T13:56:49.238Z,16.20
2023-05-01T13:58:51.037Z,16.10
2023-05-01T14:00:52.847Z,16.10
2023-05-01T14:02:56.579Z,15.90
2023-05-01T14:05:00.142Z,15.80
2023-05-01T14:07:02.840Z,15.80
2023-05-01T14:09:05.664Z,15.60
2023-05-01T14:11:08.051Z,15.50
2023-05-01T14:13:09.914Z,15.30
2023-05-01T14:15:12.781Z,15.20
2023-05-01T14:17:15.280Z,15.10
2023-05-01T14:19:18.194Z,14.90
2023-05-01T14:21:20.419Z,14.80
2023-05-01T14:23:24.949Z,14.70
2023-05-01T14:25:28.469Z,14.60
2023-05-01T14:27:30.232Z,14.70
2023-05-01T14:29:32.087Z,14.70
2023-05-01T14:31:33.922Z,14.70
2023-05-01T14:33:41.329Z,14.90
2023-05-01T14:35:50.044Z,14.90
2023-05-01T14:37:51.824Z,15.00
2023-05-01T14:39:53.416Z,15.10
2023-05-01T14:41:55.877Z,15.20
2023-05-01T14:43:57.648Z,15.30
2023-05-01T14:45:59.333Z,15.40
2023-05-01T14:48:02.483Z,15.40
2023-05-01T14:50:04.353Z,15.40
2023-05-01T14:52:07.292Z,15.40
2023-05-01T14:54:11.511Z,15.40
2023-05-01T14:56:13.208Z,15.20
2023-05-01T14:58:14.870Z,15.10
2023-05-01T15:00:16.727Z,15.10
2023-05-01T15:02:18.375Z,15.10
2023-05-01T15:04:20.139Z,15.20
2023-05-01T15:06:21.888Z,15.20
2023-05-01T15:08:24.274Z,15.00
2023-05-01T15:10:26.294Z,14.90
2023-05-01T15:12:27.961Z,14.90
2023-05-01T15:14:29.622Z,14.90
2023-05-01T15:16:32.721Z,14.90
2023-05-01T15:18:36.464Z,14.90
2023-05-01T15:20:38.188Z,14.90
2023-05-01T15:22:41.045Z,14.90
2023-05-01T15:24:42.916Z,14.90
2023-05-01T15:26:45.854Z,14.80
2023-05-01T15:28:47.592Z,14.70
2023-05-01T15:30:49.527Z,14.70
2023-05-01T15:32:56.347Z,14.70
2023-05-01T15:34:58.562Z,14.70
2023-05-01T15:37:09.705Z,14.70
2023-05-01T15:39:14.047Z,14.80
2023-05-01T15:41:18.731Z,14.80
2023-05-01T15:43:50.226Z,14.60
2023-05-01T15:45:54.434Z,14.50
2023-05-01T15:48:20.994Z,14.30
2023-05-01T15:56:37.111Z,14.50
2023-05-01T15:58:52.109Z,14.60
2023-05-01T16:01:59.248Z,14.70
2023-05-01T16:07:21.985Z,14.90
2023-05-01T16:14:57.197Z,15.80
2023-05-01T16:20:12.161Z,15.10
2023-05-01T16:28:01.067Z,14.80
2023-05-01T16:33:12.073Z,14.70
2023-05-01T16:35:18.318Z,14.80
2023-05-01T16:37:21.250Z,14.90
2023-05-01T16:39:22.996Z,14.90
2023-05-01T16:41:24.954Z,14.90
2023-05-01T16:43:26.814Z,14.80
2023-05-01T16:45:28.901Z,14.80
2023-05-01T16:47:31.985Z,14.60
2023-05-01T16:49:34.221Z,14.40
2023-05-01T16:51:36.303Z,14.20
2023-05-01T16:53:38.005Z,14.20
2023-05-01T16:55:42.289Z,14.20
2023-05-01T16:57:44.591Z,14.20
2023-05-01T16:59:47.230Z,14.10
2023-05-01T17:01:48.942Z,14.10
2023-05-01T17:03:52.895Z,14.10
2023-05-01T17:05:55.705Z,14.20
2023-05-01T17:07:57.761Z,14.20
2023-05-01T17:09:59.861Z,14.10
2023-05-01T17:12:04.170Z,14.10
2023-05-01T17:14:06.064Z,14.00
2023-05-01T17:16:08.362Z,14.00
2023-05-01T17:18:10.284Z,13.90
2023-05-01T17:20:14.404Z,13.90
2023-05-01T17:22:17.052Z,14.00
2023-05-01T17:24:19.710Z,14.00
2023-05-01T17:26:22.162Z,14.00
2023-05-01T17:28:24.360Z,14.00
2023-05-01T17:30:26.463Z,13.90
2023-05-01T17:32:36.386Z,13.80
2023-05-01T17:34:38.926Z,13.80
2023-05-01T17:36:40.630Z,13.90
2023-05-01T17:38:42.489Z,13.90
2023-05-01T17:40:50.313Z,14.00
2023-05-01T17:42:52.028Z,14.10
2023-05-01T17:44:53.764Z,13.90
2023-05-01T17:46:55.575Z,14.00
2023-05-01T17:48:57.365Z,14.00
2023-05-01T17:51:00.223Z,14.00
2023-05-01T17:53:02.053Z,13.90
2023-05-01T17:55:10.144Z,13.90
2023-05-01T17:57:12.213Z,13.90
2023-05-01T17:59:17.709Z,13.90
2023-05-01T18:01:20.943Z,13.90
2023-05-01T18:03:22.977Z,13.90
2023-05-01T18:05:24.952Z,13.90
2023-05-01T18:07:27.774Z,13.90
2023-05-01T18:09:32.385Z,13.80
2023-05-01T18:11:35.011Z,13.70
2023-05-01T18:13:42.581Z,13.70
2023-05-01T18:15:51.775Z,13.70
2023-05-01T18:17:54.071Z,13.60
2023-05-01T18:19:57.792Z,13.50
2023-05-01T18:21:59.659Z,13.50
2023-05-01T18:24:03.278Z,13.40
2023-05-01T18:26:05.580Z,13.40
2023-05-01T18:28:08.332Z,13.40
2023-05-01T18:30:12.119Z,13.30
2023-05-01T18:32:19.408Z,13.30
2023-05-01T18:34:22.819Z,13.30
2023-05-01T18:36:33.165Z,13.30
2023-05-01T18:38:35.555Z,13.40
2023-05-01T18:40:38.066Z,13.30
2023-05-01T18:42:41.539Z,13.30
2023-05-01T18:44:51.517Z,13.30
2023-05-01T18:46:55.115Z,13.30
2023-05-01T18:48:59.952Z,13.30
2023-05-01T18:51:09.358Z,13.30
2023-05-01T18:53:11.517Z,13.30
2023-05-01T18:55:13.281Z,13.30
2023-05-01T18:57:15.080Z,13.30
2023-05-01T18:59:19.701Z,13.30
2023-05-01T19:01:21.845Z,13.40
2023-05-01T19:03:23.567Z,13.40
2023-05-01T19:05:25.504Z,13.40
2023-05-01T19:07:27.287Z,13.30
2023-05-01T19:09:28.968Z,13.30
2023-05-01T19:11:31.935Z,13.30
2023-05-01T19:13:33.750Z,13.20
2023-05-01T19:15:35.899Z,13.10
2023-05-01T19:17:37.800Z,13.10
2023-05-01T19:19:39.750Z,13.10
2023-05-01T19:21:41.580Z,13.10
2023-05-01T19:23:43.396Z,13.10
2023-05-01T19:25:45.184Z,12.90
2023-05-01T19:27:46.886Z,12.80
2023-05-01T19:29:48.661Z,12.80
2023-05-01T19:31:50.421Z,12.70
2023-05-01T19:33:53.783Z,12.60
2023-05-01T19:35:55.751Z,12.60
2023-05-01T19:37:57.832Z,12.60
2023-05-01T19:39:59.753Z,12.50
2023-05-01T19:42:02.090Z,12.50
2023-05-01T19:44:03.922Z,12.60
2023-05-01T19:46:05.626Z,12.60
2023-05-01T19:48:07.460Z,12.70
2023-05-01T19:50:09.329Z,12.70
2023-05-01T19:52:10.955Z,12.80
2023-05-01T19:54:12.580Z,12.90
2023-05-01T19:56:14.175Z,12.90
2023-05-01T19:58:15.838Z,12.90
2023-05-01T20:00:17.761Z,13.00
2023-05-01T20:02:19.465Z,13.10
2023-05-01T20:04:23.086Z,12.90
2023-05-01T20:06:24.880Z,12.80
2023-05-01T20:08:27.105Z,12.80
2023-05-01T20:10:28.737Z,12.70
2023-05-01T20:12:32.195Z,12.60
2023-05-01T20:14:34.221Z,12.50
2023-05-01T20:16:36.307Z,12.50
2023-05-01T20:18:38.011Z,12.40
2023-05-01T20:20:39.769Z,12.40
2023-05-01T20:22:41.361Z,12.30
2023-05-01T20:24:43.075Z,12.30
2023-05-01T20:26:47.683Z,12.10
2023-05-01T20:28:51.008Z,12.30
2023-05-01T20:30:52.731Z,12.30
2023-05-01T20:32:54.470Z,12.30
2023-05-01T20:34:57.013Z,12.30
2023-05-01T20:36:58.808Z,12.20
2023-05-01T20:39:01.135Z,12.20
2023-05-01T20:41:02.774Z,12.10
2023-05-01T20:43:04.946Z,12.10
2023-05-01T20:45:07.784Z,12.10
2023-05-01T20:47:09.889Z,12.00
2023-05-01T20:49:12.528Z,12.00
2023-05-01T20:51:16.012Z,12.00
2023-05-01T20:53:18.788Z,12.00
2023-05-01T20:55:20.696Z,12.00
2023-05-01T20:57:22.401Z,12.00
2023-05-01T20:59:24.056Z,11.90
2023-05-01T21:01:25.842Z,11.90
2023-05-01T21:03:28.046Z,11.90
2023-05-01T21:05:29.997Z,11.80
2023-05-01T21:07:31.706Z,11.70
2023-05-01T21:09:33.984Z,11.70
2023-05-01T21:11:38.812Z,11.60
2023-05-01T21:13:40.417Z,11.50
2023-05-01T21:15:42.115Z,11.50
2023-05-01T21:17:43.828Z,11.40
2023-05-01T21:19:46.561Z,11.40
2023-05-01T21:21:48.286Z,11.40
2023-05-01T21:23:50.629Z,11.30
2023-05-01T21:25:53.655Z,11.30
2023-05-01T21:27:55.965Z,11.30
2023-05-01T21:29:59.354Z,11.30
2023-05-01T21:32:03.317Z,11.20
2023-05-01T21:34:05.731Z,11.20
2023-05-01T21:36:07.483Z,11.10
2023-05-01T21:38:09.598Z,11.10
2023-05-01T21:40:13.171Z,11.00
2023-05-01T21:42:14.832Z,11.00
2023-05-01T21:44:17.266Z,11.00
2023-05-01T21:46:19.402Z,11.00
2023-05-01T21:48:21.248Z,11.00
2023-05-01T21:50:23.073Z,10.80
2023-05-01T21:52:24.947Z,10.80
2023-05-01T21:54:29.575Z,10.80
2023-05-01T21:56:31.285Z,10.80
2023-05-01T21:58:33.041Z,10.80
2023-05-01T22:00:34.965Z,10.70
2023-05-01T22:02:40.643Z,10.70
2023-05-01T22:04:42.470Z,10.70
2023-05-01T22:06:44.255Z,10.60
2023-05-01T22:08:46.012Z,10.60
2023-05-01T22:10:48.852Z,10.50
2023-05-01T22:12:50.609Z,10.50
2023-05-01T22:14:52.391Z,10.50
2023-05-01T22:16:54.254Z,10.40
2023-05-01T22:18:56.402Z,10.30
2023-05-01T22:20:59.178Z,10.20
2023-05-01T22:23:01.000Z,10.20
2023-05-01T22:25:03.087Z,10.30
2023-05-01T22:27:04.872Z,10.30
2023-05-01T22:29:06.792Z,10.30
2023-05-01T22:31:08.513Z,10.20
2023-05-01T22:33:10.325Z,10.20
2023-05-01T22:35:12.302Z,10.20
2023-05-01T22:37:14.026Z,10.20
2023-05-01T22:39:15.935Z,10.30
2023-05-01T22:41:17.737Z,10.20
2023-05-01T22:43:19.767Z,10.20
2023-05-01T22:45:21.530Z,10.20
2023-05-01T22:47:23.368Z,10.20
2023-05-01T22:49:28.680Z,10.10
2023-05-01T22:51:30.856Z,10.00
2023-05-01T22:53:32.554Z,10.10
2023-05-01T22:55:34.305Z,10.00
2023-05-01T22:57:35.909Z,9.90
2023-05-01T22:59:39.516Z,9.90
2023-05-01T23:01:41.292Z,9.90
2023-05-01T23:03:43.189Z,9.90
2023-05-01T23:05:45.100Z,9.90
2023-05-01T23:07:46.820Z,9.90
2023-05-01T23:09:48.879Z,9.90
2023-05-01T23:11:50.674Z,9.80
2023-05-01T23:13:52.384Z,9.70
2023-05-01T23:15:55.298Z,9.80
2023-05-01T23:17:57.449Z,9.70
2023-05-01T23:20:00.273Z,9.60
2023-05-01T23:22:07.044Z,9.60
2023-05-01T23:24:08.735Z,9.60
2023-05-01T23:26:12.528Z,9.70
2023-05-01T23:28:24.111Z,9.60
2023-05-01T23:30:25.910Z,9.60
2023-05-01T23:32:29.224Z,9.50
2023-05-01T23:34:31.856Z,9.50
2023-05-01T23:36:33.521Z,9.60
2023-05-01T23:38:35.224Z,9.50
2023-05-01T23:40:37.220Z,9.50
2023-05-01T23:42:39.490Z,9.50
2023-05-01T23:44:41.242Z,9.50
2023-05-01T23:46:43.054Z,9.50
2023-05-01T23:48:44.891Z,9.40
2023-05-01T23:50:46.908Z,9.30
2023-05-01T23:52:48.630Z,9.20
2023-05-01T23:54:50.353Z,9.20
2023-05-01T23:56:52.118Z,9.30
2023-05-01T23:58:53.777Z,9.20
